Time;durP1;ratioP1;P1;durP2;ratioP2;P2;SDS_P1;SDS_P2;PMS_P1;PMS_P2;Temp;Humidity;BMP_temperature;BMP_pressure;BME280_temperature;BME280_humidity;BME280_pressure;Samples;Min_cycle;Max_cycle;Signal;HPM_P1;HPM_P2
2022/01/12 00:02:22;;;;;;;39.30;16.38;;;;;;;3.63;100.00;103313.84;10391126;28;20061;-64
2022/01/12 00:07:46;;;;;;;46.35;18.13;;;;;;;3.72;100.00;103326.75;10391167;28;20072;-64
2022/01/12 00:13:08;;;;;;;48.33;18.77;;;;;;;3.72;100.00;103326.75;10387777;28;20056;-64
2022/01/12 00:18:31;;;;;;;38.83;19.63;;;;;;;3.74;100.00;103327.63;10373415;28;20057;-64
2022/01/12 00:23:52;;;;;;;41.65;18.23;;;;;;;3.73;100.00;103328.47;10412281;28;20057;-64
2022/01/12 00:34:54;;;;;;;44.60;20.35;;;;;;;3.60;100.00;103318.97;10410053;28;20060;-64
2022/01/12 00:40:16;;;;;;;42.55;19.75;;;;;;;3.66;100.00;103339.59;10408068;28;20044;-64
2022/01/12 00:45:42;;;;;;;41.75;20.25;;;;;;;3.73;100.00;103348.22;10386817;28;20506;-64
2022/01/12 00:51:04;;;;;;;50.15;21.40;;;;;;;3.60;100.00;103359.34;10371229;28;20065;-64
2022/01/12 00:56:25;;;;;;;48.00;21.80;;;;;;;3.65;100.00;103348.19;10386810;28;20064;-64
2022/01/12 01:01:47;;;;;;;52.35;22.35;;;;;;;3.59;100.00;103348.19;10398624;28;20056;-64
2022/01/12 01:07:09;;;;;;;46.85;21.85;;;;;;;3.70;100.00;103351.66;10409885;28;20053;-64
2022/01/12 01:12:32;;;;;;;43.97;21.58;;;;;;;3.71;100.00;103352.53;10411444;28;20049;-64
2022/01/12 01:29:15;;;;;;;44.47;21.42;;;;;;;3.73;100.00;103341.38;10402281;28;20045;-64
2022/01/12 01:34:43;;;;;;;52.65;22.42;;;;;;;3.63;100.00;103347.34;10375632;28;20049;-64
2022/01/12 01:40:07;;;;;;;50.03;22.58;;;;;;;3.62;100.00;103343.03;10402639;28;20054;-63
2022/01/12 01:56:55;;;;;;;54.70;22.60;;;;;;;3.55;100.00;103359.34;10404067;28;20060;-64
2022/01/12 02:02:17;;;;;;;55.00;24.67;;;;;;;3.70;100.00;103380.03;10390938;28;20050;-64
2022/01/12 02:07:39;;;;;;;48.00;23.67;;;;;;;3.67;100.00;103377.44;10376966;28;20050;-64
2022/01/12 02:13:04;;;;;;;54.17;23.70;;;;;;;3.69;100.00;103378.31;10368891;28;20048;-64
2022/01/12 02:40:49;;;;;;;55.42;25.92;;;;;;;3.77;100.00;103420.47;10384834;28;20157;-64
2022/01/12 02:57:34;;;;;;;64.82;27.13;;;;;;;3.85;100.00;103442.00;10408547;28;20417;-64
2022/01/12 03:03:02;;;;;;;72.18;28.08;;;;;;;3.80;100.00;103447.16;10413134;28;20487;-64
2022/01/12 03:08:26;;;;;;;69.40;27.50;;;;;;;3.85;100.00;103465.22;10404361;28;20046;-64
2022/01/12 03:13:48;;;;;;;69.20;27.45;;;;;;;3.85;100.00;103462.63;10408372;28;20064;-64
2022/01/12 03:19:10;;;;;;;63.45;26.23;;;;;;;3.94;100.00;103454.94;10377762;28;20049;-65
2022/01/12 03:24:31;;;;;;;53.83;25.25;;;;;;;3.89;100.00;103441.16;10393692;28;20049;-65
2022/01/12 03:29:56;;;;;;;57.97;24.13;;;;;;;3.93;100.00;103432.56;10399528;28;20075;-64
2022/01/12 03:35:36;;;;;;;66.05;26.85;;;;;;;3.94;100.00;103430.00;10421664;28;20065;-65
2022/01/12 03:40:57;;;;;;;64.28;26.35;;;;;;;4.01;100.00;103418.00;10382567;28;20053;-65
2022/01/12 03:46:27;;;;;;;54.90;25.77;;;;;;;3.85;100.00;103393.00;10404577;28;20052;-64
2022/01/12 03:51:49;;;;;;;64.25;25.42;;;;;;;3.89;100.00;103393.00;10406713;28;20132;-64
2022/01/12 03:57:11;;;;;;;67.85;26.95;;;;;;;3.95;100.00;103407.63;10390668;28;20042;-64
2022/01/12 04:02:33;;;;;;;69.85;26.90;;;;;;;4.08;100.00;103417.13;10387095;28;20054;-64
2022/01/12 04:13:36;;;;;;;71.00;26.20;;;;;;;3.97;100.00;103418.81;10383899;28;20060;-64
2022/01/12 04:18:58;;;;;;;67.05;26.55;;;;;;;4.04;100.00;103420.59;10403881;28;20059;-64
2022/01/12 04:24:19;;;;;;;71.30;26.50;;;;;;;3.96;100.00;103430.00;10397111;28;20375;-63
2022/01/12 04:29:41;;;;;;;81.53;28.25;;;;;;;3.94;100.00;103435.16;10410934;28;20042;-62
2022/01/12 04:35:04;;;;;;;64.32;26.90;;;;;;;4.00;100.00;103424.00;10401865;28;20851;-62
2022/01/12 04:40:26;;;;;;;69.03;26.88;;;;;;;3.95;100.00;103430.84;10382578;28;20045;-63
2022/01/12 04:51:12;;;;;;;73.73;26.27;;;;;;;3.94;100.00;103445.50;10405739;28;20052;-63
2022/01/12 04:56:34;;;;;;;83.47;29.00;;;;;;;3.99;100.00;103437.75;10388749;28;20050;-63
2022/01/12 05:02:09;;;;;;;76.05;27.90;;;;;;;4.02;100.00;103448.09;10376301;28;20061;-63
2022/01/12 05:08:11;;;;;;;74.53;28.25;;;;;;;4.09;100.00;103434.34;10385189;28;20080;-62
2022/01/12 05:13:34;;;;;;;73.88;27.52;;;;;;;4.00;100.00;103445.50;10377686;28;20049;-62
2022/01/12 05:18:56;;;;;;;70.65;27.85;;;;;;;4.02;100.00;103441.22;10382795;28;20049;-63
2022/01/12 05:24:18;;;;;;;78.10;27.95;;;;;;;4.02;100.00;103442.94;10356845;28;20052;-63
2022/01/12 05:29:40;;;;;;;67.95;26.83;;;;;;;3.96;100.00;103458.38;10370151;28;20042;-63
2022/01/12 05:35:04;;;;;;;96.60;26.60;;;;;;;3.92;100.00;103467.00;10381807;28;20088;-62
2022/01/12 05:40:26;;;;;;;63.95;27.55;;;;;;;4.02;100.00;103464.44;10370002;28;20053;-63
2022/01/12 05:45:48;;;;;;;63.30;26.35;;;;;;;3.99;100.00;103463.56;10398453;28;20107;-63
2022/01/12 05:51:09;;;;;;;92.65;26.25;;;;;;;3.87;100.00;103474.69;10371307;28;20046;-63
2022/01/12 05:56:31;;;;;;;64.25;26.33;;;;;;;3.99;100.00;103463.56;10380510;28;20049;-63
2022/01/12 06:01:53;;;;;;;71.72;27.33;;;;;;;3.97;100.00;103491.94;10385829;28;20060;-63
2022/01/12 06:07:15;;;;;;;73.70;27.40;;;;;;;4.03;100.00;103480.78;10383849;28;20049;-62
2022/01/12 06:12:41;;;;;;;69.78;27.00;;;;;;;4.05;100.00;103489.41;10381295;28;20050;-65
2022/01/12 06:18:03;;;;;;;70.75;27.38;;;;;;;4.08;100.00;103494.56;10400691;28;20141;-62
2022/01/12 06:23:24;;;;;;;79.95;28.05;;;;;;;4.13;100.00;103503.19;10364959;28;20045;-63
2022/01/12 06:29:03;;;;;;;75.57;27.52;;;;;;;4.03;100.00;103502.28;10372056;28;20053;-62
2022/01/12 06:34:25;;;;;;;71.93;25.65;;;;;;;4.07;100.00;103513.50;10376754;28;20058;-65
2022/01/12 06:39:47;;;;;;;71.63;27.10;;;;;;;4.09;100.00;103516.94;10376986;28;20046;-65
2022/01/12 06:45:09;;;;;;;75.28;27.70;;;;;;;4.07;100.00;103523.81;10398950;28;20045;-62
2022/01/12 06:50:30;;;;;;;69.15;26.33;;;;;;;4.14;100.00;103522.97;10384735;28;20052;-64
2022/01/12 06:55:52;;;;;;;64.32;27.45;;;;;;;4.11;100.00;103530.72;10395082;28;20049;-63
2022/01/12 07:01:14;;;;;;;73.68;26.92;;;;;;;4.19;100.00;103541.94;10415528;28;20049;-63
2022/01/12 07:06:37;;;;;;;73.07;28.30;;;;;;;4.06;100.00;103537.59;10411096;28;20065;-63
2022/01/12 07:11:58;;;;;;;76.15;27.73;;;;;;;4.11;100.00;103546.19;10387155;28;20046;-63
2022/01/12 07:17:20;;;;;;;65.10;26.25;;;;;;;4.15;100.00;103564.28;10400531;28;20052;-63
2022/01/12 07:22:42;;;;;;;67.25;26.25;;;;;;;4.13;100.00;103572.88;10415300;28;20060;-63
2022/01/12 07:28:05;;;;;;;69.20;26.50;;;;;;;4.21;100.00;103563.47;10414266;28;20068;-63
2022/01/12 07:33:26;;;;;;;68.75;26.02;;;;;;;4.19;100.00;103580.66;10393863;28;20529;-62
2022/01/12 07:38:50;;;;;;;65.43;25.73;;;;;;;4.23;100.00;103577.22;10374067;28;20052;-63
2022/01/12 07:44:12;;;;;;;81.70;26.42;;;;;;;4.05;100.00;103592.63;10397681;28;20135;-63
2022/01/12 07:49:34;;;;;;;72.82;26.52;;;;;;;4.22;100.00;103601.34;10375556;28;20574;-63
2022/01/12 07:54:57;;;;;;;68.93;27.30;;;;;;;4.20;100.00;103603.88;10415033;28;20079;-63
2022/01/12 08:00:20;;;;;;;64.72;26.60;;;;;;;4.24;100.00;103609.94;10403574;28;20042;-63
2022/01/12 08:05:44;;;;;;;66.50;27.85;;;;;;;4.27;100.00;103621.16;10393652;28;20057;-63
2022/01/12 08:11:05;;;;;;;64.82;26.95;;;;;;;4.27;100.00;103620.28;10387571;28;20498;-63
2022/01/12 08:16:27;;;;;;;61.80;25.92;;;;;;;4.31;100.00;103611.69;10407012;28;20058;-63
2022/01/12 08:21:49;;;;;;;63.47;26.23;;;;;;;4.30;100.00;103620.28;10374528;28;20606;-63
2022/01/12 08:27:11;;;;;;;58.97;26.23;;;;;;;4.35;100.00;103636.69;10391712;28;20056;-63
2022/01/12 08:32:33;;;;;;;57.95;25.35;;;;;;;4.32;100.00;103649.56;10391746;28;20045;-63
2022/01/12 08:37:55;;;;;;;62.10;25.30;;;;;;;4.32;100.00;103647.84;10399181;28;20076;-63
2022/01/12 08:43:16;;;;;;;66.80;24.60;;;;;;;4.37;100.00;103653.03;10394410;28;20056;-65
2022/01/12 08:48:38;;;;;;;59.55;24.50;;;;;;;4.35;100.00;103654.75;10369340;28;20517;-64
2022/01/12 08:53:59;;;;;;;61.00;24.67;;;;;;;4.36;100.00;103652.19;10404732;28;20058;-65
2022/01/12 08:59:22;;;;;;;53.03;23.60;;;;;;;4.45;100.00;103651.38;10373379;28;20044;-66
2022/01/12 09:04:44;;;;;;;59.50;24.90;;;;;;;4.47;100.00;103657.41;10410810;28;20495;-66
2022/01/12 09:10:06;;;;;;;57.53;25.05;;;;;;;4.47;100.00;103652.25;10387963;28;20548;-64
2022/01/12 09:15:28;;;;;;;64.57;24.85;;;;;;;4.49;100.00;103671.19;10396618;28;20053;-64
2022/01/12 09:20:50;;;;;;;52.85;23.52;;;;;;;4.59;100.00;103685.88;10393890;28;20050;-64
2022/01/12 09:26:11;;;;;;;53.85;23.27;;;;;;;4.61;100.00;103686.75;10384090;28;20053;-64
2022/01/12 09:31:35;;;;;;;56.13;23.77;;;;;;;4.71;100.00;103709.19;10380699;28;20045;-63
2022/01/12 09:36:57;;;;;;;49.95;22.65;;;;;;;4.66;100.00;103710.91;10389780;28;20060;-64
2022/01/12 09:42:18;;;;;;;51.38;23.40;;;;;;;4.80;100.00;103704.94;10380647;28;20121;-64
2022/01/12 09:47:42;;;;;;;51.00;24.08;;;;;;;4.82;100.00;103714.41;10398818;28;20052;-64
2022/01/12 09:53:05;;;;;;;55.08;23.92;;;;;;;4.71;100.00;103716.94;10399093;28;20140;-64
2022/01/12 09:58:33;;;;;;;52.30;23.73;;;;;;;4.81;100.00;103723.03;10400737;28;20077;-63
2022/01/12 10:04:07;;;;;;;55.20;25.20;;;;;;;5.03;100.00;103718.81;10387329;28;20107;-64
2022/01/12 10:09:45;;;;;;;50.53;23.98;;;;;;;5.11;100.00;103704.22;10391902;28;20128;-64
2022/01/12 10:15:13;;;;;;;51.53;23.05;;;;;;;5.21;100.00;103717.19;10385679;28;20398;-64
2022/01/12 10:20:44;;;;;;;50.50;23.58;;;;;;;5.18;100.00;103722.34;10385660;28;20056;-64
2022/01/12 10:26:06;;;;;;;54.63;23.27;;;;;;;5.27;100.00;103722.38;10385555;28;20053;-64
2022/01/12 10:31:28;;;;;;;51.20;22.70;;;;;;;5.30;100.00;103706.88;10391600;28;20429;-64
2022/01/12 10:36:51;;;;;;;54.63;22.05;;;;;;;5.52;100.00;103715.53;10387598;28;20046;-64
2022/01/12 10:42:16;;;;;;;55.65;22.00;;;;;;;5.57;100.00;103725.03;10390106;28;20047;-64
2022/01/12 10:47:38;;;;;;;49.53;21.85;;;;;;;5.59;100.00;103727.66;10394442;28;20139;-63
2022/01/12 10:52:59;;;;;;;46.75;20.35;;;;;;;5.58;100.00;103738.84;10382915;28;20045;-64
2022/01/12 10:58:21;;;;;;;46.28;19.45;;;;;;;5.65;100.00;103720.75;10385895;28;20134;-64
2022/01/12 11:03:42;;;;;;;44.75;19.52;;;;;;;5.73;100.00;103708.69;10398799;28;20049;-64
2022/01/12 11:09:05;;;;;;;42.95;20.02;;;;;;;5.83;100.00;103715.63;10393172;28;20053;-64
2022/01/12 11:14:26;;;;;;;46.67;19.85;;;;;;;5.92;100.00;103710.47;10392793;28;20053;-63
2022/01/12 11:20:11;;;;;;;43.25;18.55;;;;;;;5.95;100.00;103713.91;10397766;28;20049;-63
2022/01/12 11:25:41;;;;;;;43.63;17.98;;;;;;;5.99;100.00;103707.00;10410886;28;20072;-64
2022/01/12 11:31:04;;;;;;;40.22;15.65;;;;;;;5.96;100.00;103707.03;10399189;28;20411;-63
2022/01/12 11:36:38;;;;;;;52.55;15.55;;;;;;;5.83;100.00;103715.63;10405741;28;20071;-64
2022/01/12 11:41:59;;;;;;;49.30;15.35;;;;;;;5.84;100.00;103712.16;10401359;28;20081;-64
2022/01/12 11:47:26;;;;;;;43.40;15.57;;;;;;;5.92;100.00;103702.69;10412076;28;20050;-64
2022/01/12 11:52:48;;;;;;;32.20;16.35;;;;;;;5.96;100.00;103701.84;10406645;28;20049;-64
2022/01/12 11:58:16;;;;;;;30.50;12.68;;;;;;;5.74;100.00;103700.94;10386584;28;20398;-64
2022/01/12 12:03:38;;;;;;;35.03;12.20;;;;;;;5.50;100.00;103694.84;10400643;28;20046;-64
2022/01/12 12:09:07;;;;;;;37.90;13.10;;;;;;;5.68;100.00;103693.16;10390699;28;20413;-65
2022/01/12 12:14:29;;;;;;;40.22;12.20;;;;;;;5.71;100.00;103689.69;10390019;28;20045;-67
2022/01/12 12:19:52;;;;;;;38.58;11.70;;;;;;;5.84;100.00;103696.63;10395308;28;20041;-66
2022/01/12 12:25:21;;;;;;;40.40;11.85;;;;;;;5.82;100.00;103698.41;10384449;28;20056;-65
2022/01/12 12:30:43;;;;;;;35.88;12.80;;;;;;;5.97;100.00;103704.44;10392047;28;20046;-65
2022/01/12 12:36:05;;;;;;;46.28;14.07;;;;;;;5.92;100.00;103715.66;10417430;28;20054;-65
2022/01/12 12:41:36;;;;;;;50.97;13.80;;;;;;;5.82;100.00;103719.94;10396200;28;20041;-66
2022/01/12 12:47:18;;;;;;;41.85;14.38;;;;;;;5.68;100.00;103721.63;10406752;28;20076;-65
2022/01/12 12:52:40;;;;;;;39.55;14.20;;;;;;;5.78;100.00;103702.69;10406068;28;20507;-65
2022/01/12 12:58:03;;;;;;;42.88;13.80;;;;;;;5.64;100.00;103703.50;10382937;28;20058;-65
2022/01/12 13:03:24;;;;;;;38.53;13.95;;;;;;;5.63;100.00;103690.53;10376189;28;20068;-65
2022/01/12 13:08:58;;;;;;;43.80;13.82;;;;;;;5.69;100.00;103701.75;10395838;28;20041;-65
2022/01/12 13:14:21;;;;;;;39.47;13.68;;;;;;;5.73;100.00;103699.22;10392131;28;20521;-66
2022/01/12 13:25:16;;;;;;;42.95;15.10;;;;;;;5.78;100.00;103707.84;10388019;28;20049;-67
2022/01/12 13:30:56;;;;;;;43.17;15.23;;;;;;;5.85;100.00;103713.91;10388294;28;20419;-66
2022/01/12 13:36:26;;;;;;;45.28;15.52;;;;;;;5.95;100.00;103707.88;10396637;28;20064;-66
2022/01/12 13:41:51;;;;;;;37.92;13.77;;;;;;;5.85;100.00;103693.19;10369020;28;20380;-65
2022/01/12 13:47:25;;;;;;;28.08;11.27;;;;;;;5.68;100.00;103687.97;10356784;28;20072;-64
2022/01/12 13:52:54;;;;;;;30.55;10.27;;;;;;;5.68;100.00;103685.41;10401298;28;20414;-64
2022/01/12 13:58:16;;;;;;;30.45;9.52;;;;;;;5.46;100.00;103682.78;10384916;28;20364;-64
2022/01/12 14:03:51;;;;;;;25.60;9.73;;;;;;;5.52;100.00;103672.44;10398190;28;20047;-65
2022/01/12 14:09:30;;;;;;;28.27;9.80;;;;;;;5.49;100.00;103671.56;10385473;28;20041;-65
2022/01/12 14:14:57;;;;;;;22.23;9.00;;;;;;;5.37;100.00;103667.25;10391560;28;20058;-64
2022/01/12 14:20:30;;;;;;;26.17;8.95;;;;;;;5.21;100.00;103668.06;10409533;28;20049;-67
2022/01/12 14:25:54;;;;;;;22.20;9.63;;;;;;;5.39;100.00;103670.66;10396809;28;20050;-66
2022/01/12 14:31:16;;;;;;;22.35;9.98;;;;;;;5.37;100.00;103667.25;10408281;28;20073;-64
2022/01/12 14:36:38;;;;;;;25.98;9.45;;;;;;;5.49;100.00;103668.97;10437340;28;20046;-65
2022/01/12 14:42:00;;;;;;;23.83;9.88;;;;;;;5.40;100.00;103676.72;10387882;28;20045;-65
2022/01/12 14:47:21;;;;;;;30.17;10.73;;;;;;;5.43;100.00;103687.09;10392281;28;20144;-65
2022/01/12 14:52:43;;;;;;;26.55;10.20;;;;;;;5.46;100.00;103690.53;10396819;28;20045;-65
2022/01/12 14:58:05;;;;;;;22.50;9.32;;;;;;;5.49;100.00;103698.31;10421479;28;20052;-65
2022/01/12 15:03:26;;;;;;;25.13;9.25;;;;;;;5.52;100.00;103712.97;10392129;28;20058;-65
2022/01/12 15:08:48;;;;;;;21.23;8.68;;;;;;;5.60;100.00;103717.28;10387780;28;20471;-65
2022/01/12 15:19:51;;;;;;;31.33;9.50;;;;;;;5.61;100.00;103724.19;10413543;28;20060;-65
2022/01/12 15:25:16;;;;;;;31.20;8.70;;;;;;;5.57;100.00;103706.06;10378776;28;20060;-65
2022/01/12 15:30:41;;;;;;;26.80;8.95;;;;;;;5.56;100.00;103710.38;10398416;28;20042;-65
2022/01/12 15:36:03;;;;;;;25.40;8.83;;;;;;;5.55;100.00;103700.88;10399299;28;20059;-65
2022/01/12 15:41:25;;;;;;;29.00;8.00;;;;;;;5.51;100.00;103703.47;10387168;28;20045;-66
2022/01/12 15:46:48;;;;;;;29.00;8.73;;;;;;;5.59;100.00;103697.44;10389118;28;20053;-65
2022/01/12 15:52:09;;;;;;;29.17;8.05;;;;;;;5.47;100.00;103710.38;10399185;28;20050;-65
2022/01/12 15:57:31;;;;;;;29.92;8.88;;;;;;;5.50;100.00;103712.97;10392580;28;20050;-64
2022/01/12 16:02:53;;;;;;;32.72;8.60;;;;;;;5.48;100.00;103706.91;10392108;28;20049;-65
2022/01/12 16:08:15;;;;;;;27.05;8.15;;;;;;;5.46;100.00;103706.06;10395967;28;20387;-65
2022/01/12 16:13:38;;;;;;;25.80;7.75;;;;;;;5.48;100.00;103701.75;10391363;28;20495;-65
2022/01/12 16:19:22;;;;;;;23.17;7.35;;;;;;;5.47;100.00;103705.19;10382420;28;20057;-65
2022/01/12 16:24:45;;;;;;;22.15;7.80;;;;;;;5.50;100.00;103710.38;10407299;28;20041;-65
2022/01/12 16:30:11;;;;;;;25.17;7.55;;;;;;;5.41;100.00;103702.56;10383576;28;20080;-65
2022/01/12 16:35:33;;;;;;;23.95;8.10;;;;;;;5.44;100.00;103715.53;10394030;28;20050;-65
2022/01/12 16:40:56;;;;;;;26.80;8.43;;;;;;;5.45;100.00;103714.66;10392847;28;20049;-65
2022/01/12 16:46:20;;;;;;;22.88;7.90;;;;;;;5.38;100.00;103702.59;10400698;28;20053;-65
2022/01/12 16:51:42;;;;;;;26.27;7.70;;;;;;;5.42;100.00;103706.91;10383891;28;20129;-66
2022/01/12 16:57:05;;;;;;;20.20;8.18;;;;;;;5.47;100.00;103714.66;10374001;28;20046;-65
2022/01/12 17:02:26;;;;;;;27.55;7.95;;;;;;;5.51;100.00;103706.06;10377190;28;20067;-66
2022/01/12 17:07:49;;;;;;;28.45;8.48;;;;;;;5.45;100.00;103717.25;10406784;28;20080;-65
2022/01/12 17:13:11;;;;;;;27.70;8.70;;;;;;;5.48;100.00;103731.91;10388210;28;20055;-64
2022/01/12 17:18:54;;;;;;;28.92;8.80;;;;;;;5.53;100.00;103723.28;10400330;28;20049;-64
2022/01/12 17:24:34;;;;;;;32.47;9.15;;;;;;;5.45;100.00;103729.34;10389290;28;20054;-64
2022/01/12 17:29:57;;;;;;;29.60;8.82;;;;;;;5.49;100.00;103744.88;10393537;28;20050;-64
2022/01/12 17:35:19;;;;;;;28.80;9.35;;;;;;;5.41;100.00;103741.38;10386956;28;20042;-64
2022/01/12 17:40:47;;;;;;;34.90;9.57;;;;;;;5.46;100.00;103747.44;10398957;28;20053;-64
2022/01/12 17:46:09;;;;;;;29.80;9.38;;;;;;;5.52;100.00;103755.22;10385615;28;20049;-64
2022/01/12 17:51:31;;;;;;;32.53;10.75;;;;;;;5.55;100.00;103751.78;10383039;28;20410;-65
2022/01/12 17:56:54;;;;;;;35.60;10.48;;;;;;;5.54;100.00;103761.25;10382429;28;20054;-63
2022/01/12 18:02:16;;;;;;;27.58;10.15;;;;;;;5.49;100.00;103765.56;10413047;28;20049;-64
2022/01/12 18:07:38;;;;;;;33.35;10.98;;;;;;;5.47;100.00;103762.09;10400500;28;20495;-64
2022/01/12 18:12:59;;;;;;;30.80;10.50;;;;;;;5.51;100.00;103761.25;10379331;28;20050;-64
2022/01/12 18:18:23;;;;;;;32.30;10.68;;;;;;;5.47;100.00;103767.28;10395173;28;20054;-63
2022/01/12 18:23:46;;;;;;;35.35;10.88;;;;;;;5.44;100.00;103774.16;10400724;28;20045;-64
2022/01/12 18:29:07;;;;;;;30.38;10.50;;;;;;;5.36;100.00;103773.25;10389603;28;20418;-64
2022/01/12 18:34:29;;;;;;;35.83;11.90;;;;;;;5.37;100.00;103764.66;10398780;28;20409;-64
2022/01/12 18:39:54;;;;;;;36.53;11.93;;;;;;;5.29;100.00;103764.63;10386198;28;20053;-64
2022/01/12 18:45:16;;;;;;;31.45;11.88;;;;;;;5.36;100.00;103758.63;10395415;28;20049;-63
2022/01/12 18:50:38;;;;;;;30.67;12.00;;;;;;;5.32;100.00;103761.16;10375820;28;20387;-63
2022/01/12 18:56:00;;;;;;;30.52;12.70;;;;;;;5.29;100.00;103762.03;10400309;28;20876;-63
2022/01/12 19:01:22;;;;;;;41.00;12.98;;;;;;;5.30;100.00;103758.59;10389967;28;20153;-63
2022/01/12 19:06:52;;;;;;;39.85;12.85;;;;;;;5.31;100.00;103749.97;10376516;28;20053;-63
2022/01/12 19:12:15;;;;;;;33.85;13.77;;;;;;;5.17;100.00;103738.72;10388503;28;20114;-63
2022/01/12 19:17:37;;;;;;;32.25;14.20;;;;;;;5.20;100.00;103741.31;10374045;28;20120;-63
2022/01/12 19:23:01;;;;;;;46.63;14.38;;;;;;;5.11;100.00;103738.69;10374503;28;20103;-63
2022/01/12 19:28:23;;;;;;;40.65;15.05;;;;;;;5.18;100.00;103752.50;10381189;28;20054;-63
2022/01/12 19:33:44;;;;;;;32.10;14.70;;;;;;;5.14;100.00;103759.38;10373629;28;20074;-64
2022/01/12 19:39:07;;;;;;;44.60;15.38;;;;;;;5.10;100.00;103759.38;10392425;28;20053;-63
2022/01/12 19:44:35;;;;;;;41.47;15.55;;;;;;;5.09;100.00;103744.72;10386756;28;20049;-64
2022/01/12 19:49:57;;;;;;;35.25;15.85;;;;;;;5.07;100.00;103739.53;10388750;28;20046;-64
2022/01/12 19:55:27;;;;;;;52.58;16.40;;;;;;;5.13;100.00;103755.06;10401391;28;20058;-64
2022/01/12 20:00:53;;;;;;;42.65;14.77;;;;;;;5.01;100.00;103755.00;10404968;28;20045;-64
2022/01/12 20:06:17;;;;;;;39.50;16.05;;;;;;;5.00;100.00;103748.09;10394871;28;20165;-63
2022/01/12 20:11:38;;;;;;;40.17;16.15;;;;;;;5.00;100.00;103753.28;10374121;28;20517;-64
2022/01/12 20:17:41;;;;;;;42.22;15.85;;;;;;;5.08;100.00;103733.53;10401794;28;20045;-63
2022/01/12 20:23:44;;;;;;;47.20;17.65;;;;;;;5.04;100.00;103729.19;10399873;28;20057;-64
2022/01/12 20:29:06;;;;;;;48.83;16.85;;;;;;;5.02;100.00;103736.06;10402355;28;20053;-63
2022/01/12 20:34:30;;;;;;;43.22;18.08;;;;;;;5.12;100.00;103739.56;10397887;28;20045;-63
2022/01/12 20:39:52;;;;;;;56.42;17.48;;;;;;;5.03;100.00;103740.38;10388652;28;20061;-63
2022/01/12 20:45:14;;;;;;;47.60;17.15;;;;;;;5.16;100.00;103739.56;10365120;28;20455;-63
2022/01/12 20:50:35;;;;;;;53.13;18.42;;;;;;;5.06;100.00;103732.63;10374475;28;20457;-64
2022/01/12 20:55:57;;;;;;;57.25;19.00;;;;;;;5.05;100.00;103732.63;10399023;28;20057;-64
2022/01/12 21:01:19;;;;;;;50.10;18.67;;;;;;;5.10;100.00;103731.78;10376446;28;20104;-64
2022/01/12 21:06:42;;;;;;;55.47;17.92;;;;;;;5.08;100.00;103741.28;10388690;28;20065;-64
2022/01/12 21:12:05;;;;;;;54.78;18.67;;;;;;;5.09;100.00;103737.84;10374269;28;20068;-64
2022/01/12 21:17:27;;;;;;;61.47;20.73;;;;;;;5.06;100.00;103742.97;10389162;28;20589;-64
2022/01/12 21:22:49;;;;;;;58.80;19.13;;;;;;;5.12;100.00;103745.56;10390018;28;20081;-63
2022/01/12 21:28:10;;;;;;;56.22;18.58;;;;;;;5.07;100.00;103741.25;10376430;28;20053;-63
2022/01/12 21:33:32;;;;;;;53.53;18.67;;;;;;;5.08;100.00;103738.69;10376196;28;20045;-63
2022/01/12 21:39:10;;;;;;;60.05;18.83;;;;;;;5.12;100.00;103740.41;10402963;28;20041;-64
2022/01/12 21:44:31;;;;;;;65.03;18.65;;;;;;;5.08;100.00;103761.06;10372726;28;20064;-64
2022/01/12 21:49:56;;;;;;;58.25;18.48;;;;;;;5.17;100.00;103745.59;10379298;28;20049;-63
2022/01/12 21:55:17;;;;;;;64.05;19.80;;;;;;;5.15;100.00;103758.53;10403859;28;20185;-65
2022/01/12 22:00:39;;;;;;;57.22;18.83;;;;;;;5.21;100.00;103763.72;10385511;28;20061;-64
2022/01/12 22:06:03;;;;;;;61.42;20.45;;;;;;;5.24;100.00;103768.88;10378847;28;20049;-64
2022/01/12 22:11:25;;;;;;;62.47;19.30;;;;;;;5.29;100.00;103772.38;10387118;28;20041;-64
2022/01/12 22:16:46;;;;;;;65.82;20.13;;;;;;;5.29;100.00;103772.38;10377139;28;20406;-65
2022/01/12 22:22:09;;;;;;;62.60;20.33;;;;;;;5.31;100.00;103770.66;10377155;28;20048;-62
2022/01/12 22:27:31;;;;;;;78.22;20.67;;;;;;;5.28;100.00;103767.22;10375883;28;20057;-64
2022/01/12 22:32:53;;;;;;;65.72;20.77;;;;;;;5.31;100.00;103775.84;10381911;28;20045;-64
2022/01/12 22:38:15;;;;;;;69.00;20.90;;;;;;;5.29;100.00;103772.38;10373741;28;20546;-64
2022/01/12 22:43:36;;;;;;;79.38;21.40;;;;;;;5.36;100.00;103773.25;10381367;28;20046;-63
2022/01/12 22:48:58;;;;;;;76.97;21.40;;;;;;;5.35;100.00;103779.28;10393515;28;20072;-64
2022/01/12 22:54:20;;;;;;;84.35;21.80;;;;;;;5.34;100.00;103786.19;10399682;28;20053;-63
2022/01/12 22:59:44;;;;;;;88.65;23.17;;;;;;;5.39;100.00;103779.28;10395334;28;20081;-63
2022/01/12 23:05:07;;;;;;;80.95;22.42;;;;;;;5.44;100.00;103769.84;10388542;28;20193;-64
2022/01/12 23:10:29;;;;;;;79.03;22.45;;;;;;;5.40;100.00;103755.16;10385328;28;20061;-63
2022/01/12 23:15:50;;;;;;;77.47;22.95;;;;;;;5.44;100.00;103756.91;10400458;28;20128;-64
2022/01/12 23:21:12;;;;;;;87.95;23.23;;;;;;;5.42;100.00;103753.44;10406209;28;20124;-64
2022/01/12 23:26:34;;;;;;;78.72;22.70;;;;;;;5.48;100.00;103752.59;10375129;28;20529;-64
2022/01/12 23:31:57;;;;;;;81.28;22.92;;;;;;;5.47;100.00;103751.75;10374562;28;20045;-64
2022/01/12 23:59:38;;;;;;;81.63;23.90;;;;;;;5.50;100.00;103732.78;10390880;28;20054;-63
